Time;durP1;ratioP1;P1;durP2;ratioP2;P2;SDS_P1;SDS_P2;PMS_P1;PMS_P2;Temp;Humidity;BMP_temperature;BMP_pressure;BME280_temperature;BME280_humidity;BME280_pressure;Samples;Min_cycle;Max_cycle;Signal;HPM_P1;HPM_P2
2022/01/12 00:02:04;;;;;;;;;;;2.30;50.10;;;;;;5039961;28;20012;-68
2022/01/12 00:04:35;;;;;;;;;;;2.20;50.70;;;;;;5030850;28;19925;-68
2022/01/12 00:07:01;;;;;;;;;;;2.20;50.90;;;;;;5033444;28;19932;-68
2022/01/12 00:09:28;;;;;;;;;;;2.10;50.90;;;;;;5016595;28;19932;-68
2022/01/12 00:11:54;;;;;;;;;;;2.10;50.90;;;;;;5019142;28;19931;-68
2022/01/12 00:14:27;;;;;;;;;;;2.10;50.90;;;;;;5024944;28;19933;-68
2022/01/12 00:17:09;;;;;;;;;;;2.10;50.90;;;;;;5031206;28;19935;-68
2022/01/12 00:19:35;;;;;;;;;;;2.10;50.90;;;;;;5030276;28;20314;-68
2022/01/12 00:22:08;;;;;;;;;;;2.10;51.10;;;;;;5022253;28;19924;-68
2022/01/12 00:33:12;;;;;;;;;;;2.10;51.10;;;;;;4990664;28;20342;-69
2022/01/12 00:35:58;;;;;;;;;;;2.10;51.20;;;;;;4990432;28;19926;-68
2022/01/12 00:38:29;;;;;;;;;;;2.00;50.90;;;;;;4988995;28;19933;-68
2022/01/12 00:40:55;;;;;;;;;;;2.00;51.00;;;;;;4986011;28;19941;-68
2022/01/12 00:43:25;;;;;;;;;;;1.90;51.10;;;;;;4940777;28;20280;-68
2022/01/12 00:45:54;;;;;;;;;;;2.00;51.20;;;;;;4940951;28;19926;-68
2022/01/12 00:48:20;;;;;;;;;;;2.00;51.10;;;;;;4980392;28;19988;-68
2022/01/12 00:50:47;;;;;;;;;;;1.90;51.30;;;;;;4986667;28;19926;-68
2022/01/12 00:53:17;;;;;;;;;;;2.00;51.20;;;;;;4990134;28;19925;-68
2022/01/12 00:55:45;;;;;;;;;;;1.90;51.00;;;;;;4972371;28;20379;-68
2022/01/12 00:58:11;;;;;;;;;;;1.90;51.10;;;;;;4973648;28;19929;-68
2022/01/12 01:00:43;;;;;;;;;;;1.90;51.30;;;;;;4977221;28;19988;-68
2022/01/12 01:03:18;;;;;;;;;;;1.90;51.20;;;;;;4999193;28;20338;-68
2022/01/12 01:05:44;;;;;;;;;;;1.90;51.20;;;;;;4981256;28;19925;-68
2022/01/12 01:08:13;;;;;;;;;;;1.80;51.10;;;;;;4964230;28;19985;-67
2022/01/12 01:10:46;;;;;;;;;;;1.80;51.10;;;;;;4980487;28;19987;-68
2022/01/12 01:13:28;;;;;;;;;;;1.90;51.50;;;;;;4980128;28;19926;-69
2022/01/12 01:27:02;;;;;;;;;;;1.80;51.20;;;;;;4996956;28;19925;-69
2022/01/12 01:29:57;;;;;;;;;;;1.90;51.20;;;;;;5024908;28;19929;-68
2022/01/12 01:32:28;;;;;;;;;;;1.90;51.30;;;;;;5017236;28;20020;-68
2022/01/12 01:34:54;;;;;;;;;;;1.90;51.30;;;;;;5018612;28;19921;-68
2022/01/12 01:37:42;;;;;;;;;;;1.90;51.50;;;;;;5008877;28;19926;-68
2022/01/12 01:40:27;;;;;;;;;;;1.80;51.50;;;;;;5010182;28;20322;-68
2022/01/12 01:54:27;;;;;;;;;;;1.90;51.50;;;;;;5006621;28;19929;-67
2022/01/12 01:57:12;;;;;;;;;;;1.90;51.10;;;;;;5024862;28;19952;-68
2022/01/12 01:59:39;;;;;;;;;;;1.90;52.10;;;;;;4990542;28;19929;-69
2022/01/12 02:02:12;;;;;;;;;;;2.00;51.10;;;;;;4998976;28;19941;-68
2022/01/12 02:04:40;;;;;;;;;;;1.90;50.90;;;;;;5003091;28;19926;-68
2022/01/12 02:07:08;;;;;;;;;;;2.00;50.80;;;;;;5009610;28;19926;-68
2022/01/12 02:09:35;;;;;;;;;;;2.00;50.90;;;;;;5026058;28;19975;-69
2022/01/12 02:12:08;;;;;;;;;;;2.00;50.70;;;;;;5010260;28;19921;-68
2022/01/12 02:14:34;;;;;;;;;;;2.00;50.30;;;;;;5008542;28;19925;-68
2022/01/12 02:17:16;;;;;;;;;;;2.00;50.50;;;;;;5008333;28;19926;-68
2022/01/12 02:20:27;;;;;;;;;;;2.00;50.90;;;;;;4993964;28;19926;-67
2022/01/12 02:40:21;;;;;;;;;;;2.00;50.70;;;;;;5001905;28;20024;-68
2022/01/12 02:43:05;;;;;;;;;;;2.00;50.60;;;;;;5025197;28;20309;-67
2022/01/12 02:51:16;;;;;;;;;;;2.00;50.20;;;;;;5008521;28;19932;-68
2022/01/12 02:54:13;;;;;;;;;;;2.00;50.50;;;;;;5009355;28;19921;-67
2022/01/12 02:56:42;;;;;;;;;;;2.10;50.60;;;;;;5024873;28;20302;-68
2022/01/12 02:59:10;;;;;;;;;;;2.00;50.70;;;;;;5011336;28;19928;-68
2022/01/12 03:02:07;;;;;;;;;;;2.10;50.80;;;;;;4990981;28;19938;-68
2022/01/12 03:04:31;;;;;;;;;;;2.10;50.70;;;;;;5026300;28;19926;-68
2022/01/12 03:07:20;;;;;;;;;;;2.10;50.80;;;;;;5024869;28;19921;-68
2022/01/12 03:10:01;;;;;;;;;;;2.00;50.60;;;;;;5013520;28;19985;-68
2022/01/12 03:12:29;;;;;;;;;;;2.00;50.70;;;;;;5009650;28;19917;-68
2022/01/12 03:14:55;;;;;;;;;;;2.00;50.70;;;;;;5013727;28;19924;-68
2022/01/12 03:17:21;;;;;;;;;;;2.00;50.60;;;;;;5032285;28;19929;-68
2022/01/12 03:19:49;;;;;;;;;;;2.10;50.70;;;;;;5023824;28;20374;-68
2022/01/12 03:22:21;;;;;;;;;;;2.10;50.70;;;;;;5025050;28;19948;-68
2022/01/12 03:24:50;;;;;;;;;;;2.10;50.60;;;;;;5013809;28;19932;-69
2022/01/12 03:27:38;;;;;;;;;;;2.10;50.70;;;;;;5007836;28;19929;-67
2022/01/12 03:30:05;;;;;;;;;;;2.00;50.50;;;;;;5004711;28;20390;-67
2022/01/12 03:32:45;;;;;;;;;;;2.00;50.50;;;;;;5018309;28;19968;-68
2022/01/12 04:08:19;;;;;;;;;;;2.10;50.90;;;;;;5023407;28;19926;-68
2022/01/12 04:11:00;;;;;;;;;;;2.00;50.70;;;;;;5033008;28;19925;-68
2022/01/12 04:13:34;;;;;;;;;;;2.00;50.60;;;;;;5032439;28;19921;-67
2022/01/12 04:16:20;;;;;;;;;;;2.00;50.60;;;;;;5020770;28;20429;-68
2022/01/12 04:19:24;;;;;;;;;;;1.90;50.50;;;;;;5010989;28;19928;-68
2022/01/12 04:21:54;;;;;;;;;;;1.90;50.60;;;;;;5010644;28;19976;-68
2022/01/12 04:24:20;;;;;;;;;;;1.90;50.20;;;;;;5027306;28;20370;-67
2022/01/12 04:26:46;;;;;;;;;;;1.90;50.50;;;;;;5010049;28;19926;-69
2022/01/12 04:29:32;;;;;;;;;;;1.90;50.50;;;;;;5026725;28;19925;-68
2022/01/12 04:31:58;;;;;;;;;;;1.90;50.40;;;;;;5024347;28;19929;-68
2022/01/12 04:34:24;;;;;;;;;;;1.80;50.40;;;;;;5009972;28;19938;-67
2022/01/12 04:36:53;;;;;;;;;;;1.90;50.50;;;;;;5028135;28;19921;-67
2022/01/12 04:39:33;;;;;;;;;;;1.90;50.40;;;;;;4992621;28;19926;-68
2022/01/12 04:41:59;;;;;;;;;;;1.90;50.40;;;;;;4994735;28;19933;-69
2022/01/12 04:44:27;;;;;;;;;;;1.90;50.30;;;;;;5028600;28;19937;-67
2022/01/12 04:49:59;;;;;;;;;;;1.80;49.90;;;;;;5021772;28;20060;-68
2022/01/12 04:52:29;;;;;;;;;;;1.80;50.60;;;;;;5030909;28;19925;-69
2022/01/12 04:54:55;;;;;;;;;;;1.70;50.50;;;;;;5022226;28;20302;-69
2022/01/12 04:57:30;;;;;;;;;;;1.60;50.60;;;;;;5011046;28;20319;-67
2022/01/12 05:00:22;;;;;;;;;;;1.70;50.60;;;;;;5016371;28;19925;-68
2022/01/12 05:13:35;;;;;;;;;;;1.50;51.00;;;;;;5032268;28;19971;-67
2022/01/12 05:16:10;;;;;;;;;;;1.50;50.90;;;;;;5030002;28;19975;-67
2022/01/12 05:18:37;;;;;;;;;;;1.40;50.90;;;;;;4999248;28;20381;-68
2022/01/12 05:21:08;;;;;;;;;;;1.40;51.00;;;;;;5046866;28;20384;-68
2022/01/12 05:24:24;;;;;;;;;;;1.30;51.10;;;;;;5012362;28;19939;-69
2022/01/12 05:27:08;;;;;;;;;;;1.30;51.10;;;;;;5020349;28;19925;-67
2022/01/12 05:29:57;;;;;;;;;;;1.20;50.60;;;;;;5027826;28;19932;-67
2022/01/12 05:32:25;;;;;;;;;;;1.20;51.10;;;;;;5030409;28;19925;-67
2022/01/12 05:35:01;;;;;;;;;;;1.20;51.10;;;;;;5028362;28;19929;-68
2022/01/12 05:37:44;;;;;;;;;;;1.20;50.80;;;;;;5013533;28;19963;-68
2022/01/12 05:40:16;;;;;;;;;;;1.30;51.00;;;;;;5011533;28;20404;-68
2022/01/12 05:42:49;;;;;;;;;;;1.20;50.70;;;;;;5013619;28;20398;-67
2022/01/12 05:45:18;;;;;;;;;;;1.20;50.80;;;;;;5011789;28;19929;-71
2022/01/12 05:50:22;;;;;;;;;;;1.20;50.90;;;;;;4995135;28;19933;-68
2022/01/12 05:53:11;;;;;;;;;;;1.10;51.00;;;;;;5031785;28;19925;-68
2022/01/12 05:55:38;;;;;;;;;;;1.20;50.90;;;;;;5025741;28;20012;-67
2022/01/12 05:58:07;;;;;;;;;;;1.10;51.00;;;;;;5027054;28;19917;-67
2022/01/12 06:00:35;;;;;;;;;;;1.10;51.20;;;;;;5022622;28;19968;-67
2022/01/12 06:03:06;;;;;;;;;;;1.10;50.70;;;;;;5013960;28;20437;-67
2022/01/12 06:05:32;;;;;;;;;;;1.10;50.60;;;;;;5026507;28;19932;-67
2022/01/12 06:08:01;;;;;;;;;;;1.10;51.20;;;;;;5013508;28;19922;-67
2022/01/12 06:10:38;;;;;;;;;;;1.10;51.10;;;;;;4992357;28;20421;-67
2022/01/12 06:13:11;;;;;;;;;;;1.10;51.00;;;;;;4982938;28;19918;-66
2022/01/12 06:16:11;;;;;;;;;;;1.10;51.10;;;;;;5019236;28;20386;-68
2022/01/12 06:19:01;;;;;;;;;;;1.10;51.20;;;;;;5027073;28;20309;-67
2022/01/12 06:21:56;;;;;;;;;;;1.10;51.00;;;;;;5008538;28;20019;-66
2022/01/12 06:24:22;;;;;;;;;;;1.10;51.10;;;;;;4990195;28;19929;-70
2022/01/12 06:26:48;;;;;;;;;;;1.10;51.30;;;;;;5005048;28;20264;-67
2022/01/12 06:30:01;;;;;;;;;;;1.10;50.80;;;;;;5009348;28;19925;-67
2022/01/12 06:32:28;;;;;;;;;;;1.10;51.30;;;;;;5006315;28;19968;-67
2022/01/12 06:34:54;;;;;;;;;;;0.90;51.00;;;;;;5018141;28;19932;-68
2022/01/12 06:37:28;;;;;;;;;;;0.90;52.40;;;;;;5008996;28;19926;-67
2022/01/12 06:39:56;;;;;;;;;;;0.80;51.70;;;;;;5032227;28;20206;-69
2022/01/12 06:42:24;;;;;;;;;;;0.70;52.00;;;;;;5017067;28;19936;-68
2022/01/12 06:45:07;;;;;;;;;;;0.60;52.10;;;;;;5017735;28;19921;-69
2022/01/12 06:47:38;;;;;;;;;;;0.50;52.10;;;;;;5025256;28;20040;-66
2022/01/12 06:50:08;;;;;;;;;;;0.40;51.80;;;;;;4990401;28;19973;-67
2022/01/12 06:52:35;;;;;;;;;;;0.40;52.30;;;;;;4979457;28;19926;-67
2022/01/12 06:55:00;;;;;;;;;;;0.40;52.60;;;;;;5019455;28;19928;-68
2022/01/12 06:57:50;;;;;;;;;;;0.30;52.80;;;;;;5033204;28;19921;-67
2022/01/12 07:00:16;;;;;;;;;;;0.30;52.30;;;;;;4995321;28;20755;-67
2022/01/12 07:02:42;;;;;;;;;;;0.20;52.70;;;;;;5042553;28;20455;-67
2022/01/12 07:05:09;;;;;;;;;;;0.20;52.90;;;;;;5030633;28;19925;-67
2022/01/12 07:07:35;;;;;;;;;;;0.10;52.50;;;;;;5028777;28;19925;-66
2022/01/12 07:10:08;;;;;;;;;;;0.00;53.00;;;;;;5027617;28;19921;-67
2022/01/12 07:12:34;;;;;;;;;;;0.00;52.90;;;;;;5029148;28;20011;-69
2022/01/12 07:15:00;;;;;;;;;;;0.00;53.00;;;;;;5010909;28;19931;-69
2022/01/12 07:17:26;;;;;;;;;;;0.00;52.60;;;;;;5031978;28;19925;-67
2022/01/12 07:19:55;;;;;;;;;;;0.00;53.10;;;;;;5003988;28;19957;-68
2022/01/12 07:22:21;;;;;;;;;;;0.00;53.20;;;;;;5015519;28;19932;-70
2022/01/12 07:24:58;;;;;;;;;;;-0.10;53.20;;;;;;5015487;28;19920;-67
2022/01/12 07:27:35;;;;;;;;;;;0.00;53.30;;;;;;5030164;28;19948;-68
2022/01/12 07:30:08;;;;;;;;;;;-0.10;53.20;;;;;;4998619;28;20687;-67
2022/01/12 07:32:57;;;;;;;;;;;-0.10;53.30;;;;;;5046350;28;19979;-67
2022/01/12 07:35:22;;;;;;;;;;;0.00;53.40;;;;;;5045881;28;20385;-67
2022/01/12 07:37:48;;;;;;;;;;;0.00;53.30;;;;;;5032279;28;19925;-67
2022/01/12 07:40:17;;;;;;;;;;;0.00;53.30;;;;;;5001958;28;19921;-67
2022/01/12 07:42:45;;;;;;;;;;;0.00;53.10;;;;;;5028248;28;20385;-66
2022/01/12 07:45:20;;;;;;;;;;;0.10;53.20;;;;;;5032404;28;20365;-66
2022/01/12 07:47:53;;;;;;;;;;;0.10;53.30;;;;;;5009567;28;19930;-68
2022/01/12 07:50:47;;;;;;;;;;;0.10;53.00;;;;;;5010543;28;20335;-68
2022/01/12 07:53:22;;;;;;;;;;;0.20;53.20;;;;;;5021630;28;20114;-67
2022/01/12 07:56:08;;;;;;;;;;;0.20;53.10;;;;;;4931831;29;20325;-69
2022/01/12 07:59:03;;;;;;;;;;;0.30;53.10;;;;;;4931968;29;19927;-67
2022/01/12 08:01:29;;;;;;;;;;;0.30;52.90;;;;;;4930816;29;19962;-67
2022/01/12 08:03:55;;;;;;;;;;;0.30;52.90;;;;;;4899715;29;20320;-68
2022/01/12 08:06:24;;;;;;;;;;;0.40;52.80;;;;;;4899856;29;19977;-67
2022/01/12 08:08:56;;;;;;;;;;;0.40;52.80;;;;;;4931658;29;19997;-67
2022/01/12 08:11:31;;;;;;;;;;;0.40;52.70;;;;;;4915944;29;19927;-68
2022/01/12 08:13:57;;;;;;;;;;;0.50;52.90;;;;;;4931585;29;19927;-67
2022/01/12 08:16:23;;;;;;;;;;;0.50;52.80;;;;;;4931740;29;19933;-67
2022/01/12 08:18:52;;;;;;;;;;;0.60;52.70;;;;;;4931823;29;20457;-67
2022/01/12 08:21:23;;;;;;;;;;;0.70;52.60;;;;;;4931606;29;19927;-67
2022/01/12 08:23:49;;;;;;;;;;;0.70;52.40;;;;;;4932427;29;19994;-67
2022/01/12 08:26:17;;;;;;;;;;;0.80;52.40;;;;;;4928097;29;19935;-67
2022/01/12 08:28:47;;;;;;;;;;;0.80;52.20;;;;;;4914414;29;19934;-67
2022/01/12 08:31:12;;;;;;;;;;;0.90;52.30;;;;;;4901867;29;19935;-67
2022/01/12 08:33:42;;;;;;;;;;;1.00;52.30;;;;;;4997783;28;20416;-67
2022/01/12 08:36:15;;;;;;;;;;;1.10;52.10;;;;;;5011768;28;19936;-67
2022/01/12 08:38:41;;;;;;;;;;;1.20;51.80;;;;;;5030988;28;19957;-68
2022/01/12 08:41:07;;;;;;;;;;;1.30;51.30;;;;;;5009329;28;19979;-66
2022/01/12 08:43:33;;;;;;;;;;;1.30;51.70;;;;;;5022084;28;19924;-68
2022/01/12 08:45:59;;;;;;;;;;;1.40;51.70;;;;;;5030654;28;19925;-68
2022/01/12 08:48:25;;;;;;;;;;;1.50;51.70;;;;;;5014719;28;19921;-67
2022/01/12 08:50:51;;;;;;;;;;;1.60;51.50;;;;;;5046112;28;19971;-67
2022/01/12 08:53:22;;;;;;;;;;;1.60;50.80;;;;;;5008835;28;19994;-67
2022/01/12 08:55:51;;;;;;;;;;;1.70;51.30;;;;;;4985658;28;19928;-70
2022/01/12 08:58:17;;;;;;;;;;;1.80;51.10;;;;;;5027969;28;19925;-68
2022/01/12 09:00:43;;;;;;;;;;;1.90;51.10;;;;;;5028755;28;19921;-68
2022/01/12 09:03:12;;;;;;;;;;;1.90;51.00;;;;;;5027258;28;19925;-67
2022/01/12 09:05:38;;;;;;;;;;;2.10;51.00;;;;;;5042350;28;19925;-68
2022/01/12 09:08:05;;;;;;;;;;;3.40;49.00;;;;;;5025049;28;20345;-67
2022/01/12 09:10:31;;;;;;;;;;;4.50;46.90;;;;;;5021325;28;19955;-67
2022/01/12 09:13:03;;;;;;;;;;;4.70;47.10;;;;;;5011176;28;19926;-68
2022/01/12 09:15:29;;;;;;;;;;;5.20;47.20;;;;;;5026068;28;19921;-67
2022/01/12 09:18:01;;;;;;;;;;;7.10;44.70;;;;;;5017306;28;19925;-68
2022/01/12 09:20:39;;;;;;;;;;;7.90;42.50;;;;;;5011027;28;19925;-67
2022/01/12 09:23:05;;;;;;;;;;;8.60;40.40;;;;;;5017804;28;19932;-68
2022/01/12 09:28:19;;;;;;;;;;;8.70;40.40;;;;;;5015912;28;19963;-68
2022/01/12 09:30:48;;;;;;;;;;;8.50;41.20;;;;;;5016424;28;19927;-68
2022/01/12 09:33:14;;;;;;;;;;;8.40;41.30;;;;;;5022525;28;19929;-68
2022/01/12 09:35:40;;;;;;;;;;;7.80;42.20;;;;;;5014437;28;19926;-68
2022/01/12 09:38:23;;;;;;;;;;;7.40;43.50;;;;;;5025016;28;19941;-68
2022/01/12 09:40:52;;;;;;;;;;;7.00;43.90;;;;;;5038641;28;20365;-68
2022/01/12 09:43:18;;;;;;;;;;;6.90;43.90;;;;;;5012695;28;19926;-68
2022/01/12 09:45:49;;;;;;;;;;;6.80;44.50;;;;;;5039544;28;19921;-68
2022/01/12 09:48:23;;;;;;;;;;;7.00;44.60;;;;;;5009167;28;19951;-68
2022/01/12 09:50:53;;;;;;;;;;;7.40;43.00;;;;;;5009700;28;19926;-68
2022/01/12 09:53:23;;;;;;;;;;;7.30;42.50;;;;;;5041209;28;19929;-68
2022/01/12 09:55:49;;;;;;;;;;;7.10;42.40;;;;;;5024744;28;20152;-68
2022/01/12 09:58:17;;;;;;;;;;;7.20;40.80;;;;;;5009804;28;20271;-68
2022/01/12 10:00:57;;;;;;;;;;;7.80;39.70;;;;;;5027895;28;19932;-68
2022/01/12 10:03:25;;;;;;;;;;;7.70;39.80;;;;;;4991626;28;20404;-68
2022/01/12 10:05:54;;;;;;;;;;;7.90;39.50;;;;;;4991665;28;20340;-67
2022/01/12 10:08:28;;;;;;;;;;;8.40;39.50;;;;;;5009189;28;20405;-67
2022/01/12 10:11:05;;;;;;;;;;;9.00;37.90;;;;;;5027321;28;19925;-68
2022/01/12 10:13:40;;;;;;;;;;;8.80;38.50;;;;;;5036443;28;20362;-68
2022/01/12 10:16:16;;;;;;;;;;;8.50;38.70;;;;;;4979628;28;19929;-68
2022/01/12 10:18:54;;;;;;;;;;;8.60;39.10;;;;;;5014089;28;19917;-68
2022/01/12 10:21:40;;;;;;;;;;;9.70;37.30;;;;;;5016300;28;20283;-68
2022/01/12 10:24:08;;;;;;;;;;;10.00;36.50;;;;;;5009346;28;19928;-68
2022/01/12 10:26:45;;;;;;;;;;;9.80;36.90;;;;;;5008076;28;20626;-68
2022/01/12 10:29:31;;;;;;;;;;;8.90;37.80;;;;;;5024467;28;19979;-69
2022/01/12 10:32:36;;;;;;;;;;;8.60;38.70;;;;;;5009491;28;20432;-68
2022/01/12 10:35:02;;;;;;;;;;;8.40;39.00;;;;;;5025500;28;19925;-68
2022/01/12 10:37:30;;;;;;;;;;;8.70;36.00;;;;;;5027003;28;20372;-68
2022/01/12 10:39:57;;;;;;;;;;;9.00;36.00;;;;;;4992677;28;20380;-68
2022/01/12 10:42:25;;;;;;;;;;;9.20;35.80;;;;;;4991338;28;19922;-68
2022/01/12 10:45:01;;;;;;;;;;;9.00;35.80;;;;;;4996601;28;19940;-68
2022/01/12 10:47:32;;;;;;;;;;;8.70;36.50;;;;;;5040517;28;19941;-68
2022/01/12 10:50:06;;;;;;;;;;;8.80;36.70;;;;;;5021498;28;20324;-67
2022/01/12 10:52:37;;;;;;;;;;;10.10;35.40;;;;;;4990473;28;19926;-68
2022/01/12 10:55:25;;;;;;;;;;;10.30;34.60;;;;;;4997671;28;19927;-69
2022/01/12 10:57:54;;;;;;;;;;;10.20;34.80;;;;;;5018979;28;19931;-68
2022/01/12 11:00:26;;;;;;;;;;;10.00;35.40;;;;;;5020974;28;20464;-68
2022/01/12 11:03:00;;;;;;;;;;;9.50;35.80;;;;;;5036547;28;19932;-68
2022/01/12 11:05:32;;;;;;;;;;;10.10;35.60;;;;;;5005286;28;19925;-68
2022/01/12 11:08:14;;;;;;;;;;;12.20;33.00;;;;;;5039621;28;20036;-69
2022/01/12 11:10:40;;;;;;;;;;;13.10;30.90;;;;;;4999704;28;20007;-68
2022/01/12 11:13:07;;;;;;;;;;;13.10;30.00;;;;;;5024951;28;20282;-68
2022/01/12 11:15:33;;;;;;;;;;;13.80;29.80;;;;;;4991342;28;19925;-68
2022/01/12 11:18:04;;;;;;;;;;;14.00;29.80;;;;;;5019288;28;19980;-68
2022/01/12 11:20:32;;;;;;;;;;;13.80;30.40;;;;;;5022995;28;20592;-68
2022/01/12 11:23:18;;;;;;;;;;;13.70;30.50;;;;;;5010985;28;20404;-68
2022/01/12 11:26:06;;;;;;;;;;;13.40;30.80;;;;;;5027074;28;19932;-68
2022/01/12 11:28:46;;;;;;;;;;;13.80;30.80;;;;;;5027520;28;19925;-68
2022/01/12 11:31:18;;;;;;;;;;;15.10;29.20;;;;;;5010483;28;19925;-68
2022/01/12 11:33:46;;;;;;;;;;;15.80;28.60;;;;;;5011910;28;20024;-68
2022/01/12 11:36:33;;;;;;;;;;;16.50;27.90;;;;;;5011091;28;19932;-69
2022/01/12 11:39:02;;;;;;;;;;;15.70;28.10;;;;;;5010619;28;20013;-68
2022/01/12 11:41:49;;;;;;;;;;;14.60;29.50;;;;;;5010715;28;19929;-68
2022/01/12 11:44:38;;;;;;;;;;;14.20;30.00;;;;;;5010751;28;19925;-68
2022/01/12 11:47:28;;;;;;;;;;;13.40;30.90;;;;;;5010439;28;19925;-68
2022/01/12 11:49:54;;;;;;;;;;;12.50;32.20;;;;;;5010972;28;19925;-68
2022/01/12 11:52:38;;;;;;;;;;;12.10;32.90;;;;;;5028576;28;20345;-68
2022/01/12 11:55:25;;;;;;;;;;;12.20;32.30;;;;;;5010158;28;20538;-68
2022/01/12 11:58:03;;;;;;;;;;;11.60;32.60;;;;;;4994858;28;19931;-68
2022/01/12 12:00:53;;;;;;;;;;;11.50;32.80;;;;;;4995922;28;20110;-68
2022/01/12 12:03:26;;;;;;;;;;;11.10;33.00;;;;;;5025617;28;19925;-68
2022/01/12 12:05:54;;;;;;;;;;;11.70;32.20;;;;;;4994485;28;19929;-68
2022/01/12 12:08:38;;;;;;;;;;;13.00;30.30;;;;;;4997470;28;20220;-68
2022/01/12 12:11:09;;;;;;;;;;;12.70;30.00;;;;;;5028440;28;19933;-68
2022/01/12 12:13:43;;;;;;;;;;;11.90;30.70;;;;;;5031723;28;19999;-68
2022/01/12 12:16:09;;;;;;;;;;;11.30;31.70;;;;;;5029820;28;20429;-68
2022/01/12 12:18:35;;;;;;;;;;;10.90;32.50;;;;;;5013056;28;20260;-68
2022/01/12 12:21:10;;;;;;;;;;;10.60;33.00;;;;;;5011365;28;19929;-68
2022/01/12 12:23:39;;;;;;;;;;;10.40;33.10;;;;;;4997423;28;19932;-68
2022/01/12 12:26:08;;;;;;;;;;;10.30;33.20;;;;;;5008871;28;19953;-68
2022/01/12 12:28:47;;;;;;;;;;;10.30;33.00;;;;;;5030043;28;19987;-68
2022/01/12 12:31:31;;;;;;;;;;;10.20;32.30;;;;;;5030372;28;19933;-68
2022/01/12 12:34:05;;;;;;;;;;;10.10;32.80;;;;;;5031250;28;19974;-68
2022/01/12 12:36:32;;;;;;;;;;;10.20;32.80;;;;;;4994489;28;20325;-68
2022/01/12 12:39:13;;;;;;;;;;;10.40;31.90;;;;;;5012441;28;19960;-68
2022/01/12 12:41:59;;;;;;;;;;;10.30;31.90;;;;;;5012583;28;20494;-68
2022/01/12 12:44:31;;;;;;;;;;;10.70;31.80;;;;;;5012737;28;19925;-68
2022/01/12 12:47:17;;;;;;;;;;;10.80;31.20;;;;;;5031291;28;20374;-68
2022/01/12 12:50:18;;;;;;;;;;;;;;;;;;;;;
2022/01/12 12:52:50;;;;;;;;;;;10.30;31.70;;;;;;5029533;28;19925;-68
2022/01/12 12:55:20;;;;;;;;;;;10.30;32.00;;;;;;5013105;28;19925;-69
2022/01/12 12:58:07;;;;;;;;;;;10.20;31.60;;;;;;5013624;28;19929;-68
2022/01/12 13:00:38;;;;;;;;;;;10.20;30.30;;;;;;5013165;28;19948;-68
2022/01/12 13:03:06;;;;;;;;;;;10.00;30.80;;;;;;5029333;28;20357;-68
2022/01/12 13:05:34;;;;;;;;;;;10.90;30.60;;;;;;5013201;28;19979;-68
2022/01/12 13:08:02;;;;;;;;;;;11.40;30.00;;;;;;5029230;28;19947;-69
2022/01/12 13:10:31;;;;;;;;;;;11.70;29.80;;;;;;5012730;28;19963;-68
2022/01/12 13:13:18;;;;;;;;;;;11.80;29.80;;;;;;5029438;28;19940;-68
2022/01/12 13:16:07;;;;;;;;;;;11.70;29.70;;;;;;5013614;28;19925;-68
2022/01/12 13:18:42;;;;;;;;;;;12.10;29.40;;;;;;5013511;28;20407;-68
2022/01/12 13:21:19;;;;;;;;;;;12.30;29.40;;;;;;5033114;28;19925;-68
2022/01/12 13:23:46;;;;;;;;;;;12.20;29.50;;;;;;5026606;28;20362;-68
2022/01/12 13:26:32;;;;;;;;;;;12.10;29.50;;;;;;5031584;28;19925;-68
2022/01/12 13:29:09;;;;;;;;;;;11.60;29.80;;;;;;5040963;28;19925;-68
2022/01/12 13:31:36;;;;;;;;;;;11.50;29.90;;;;;;5012279;28;20318;-68
2022/01/12 13:34:04;;;;;;;;;;;11.00;30.10;;;;;;5005292;28;19971;-68
2022/01/12 13:36:32;;;;;;;;;;;10.80;30.90;;;;;;5012427;28;20395;-68
2022/01/12 13:39:00;;;;;;;;;;;10.60;31.40;;;;;;5038807;28;19979;-69
2022/01/12 13:41:30;;;;;;;;;;;10.60;31.60;;;;;;5036875;28;19921;-68
2022/01/12 13:44:16;;;;;;;;;;;10.70;31.50;;;;;;5047512;28;20019;-68
2022/01/12 13:46:54;;;;;;;;;;;11.70;30.30;;;;;;5033994;28;19952;-69
2022/01/12 13:49:21;;;;;;;;;;;13.10;29.20;;;;;;5041402;28;20210;-67
2022/01/12 13:52:08;;;;;;;;;;;13.60;28.50;;;;;;5033766;28;19917;-68
2022/01/12 13:54:48;;;;;;;;;;;14.00;28.20;;;;;;5028957;28;20016;-69
2022/01/12 13:57:20;;;;;;;;;;;13.90;28.10;;;;;;5041369;28;20333;-68
2022/01/12 14:00:09;;;;;;;;;;;13.30;28.40;;;;;;5024833;28;19925;-68
2022/01/12 14:02:42;;;;;;;;;;;12.80;29.20;;;;;;4995288;28;19951;-68
2022/01/12 14:05:17;;;;;;;;;;;12.70;29.40;;;;;;5006103;28;19929;-68
2022/01/12 14:07:58;;;;;;;;;;;12.70;29.10;;;;;;5016624;28;19924;-68
2022/01/12 14:10:27;;;;;;;;;;;12.30;29.50;;;;;;5025821;28;20350;-69
2022/01/12 14:13:01;;;;;;;;;;;12.80;29.60;;;;;;5018644;28;19929;-68
2022/01/12 14:15:47;;;;;;;;;;;13.20;28.90;;;;;;4992003;28;19976;-69
2022/01/12 14:18:33;;;;;;;;;;;13.00;28.80;;;;;;4998364;28;19932;-68
2022/01/12 14:21:02;;;;;;;;;;;12.60;29.00;;;;;;5019701;28;19931;-68
2022/01/12 14:23:38;;;;;;;;;;;11.90;29.30;;;;;;5027670;28;19926;-68
2022/01/12 14:26:04;;;;;;;;;;;11.20;29.80;;;;;;4988710;28;20020;-68
2022/01/12 14:28:42;;;;;;;;;;;10.70;30.60;;;;;;5006610;28;20384;-68
2022/01/12 14:31:12;;;;;;;;;;;10.20;30.80;;;;;;5009330;28;19945;-68
2022/01/12 14:33:43;;;;;;;;;;;9.70;31.50;;;;;;4991294;28;19921;-68
2022/01/12 14:36:15;;;;;;;;;;;9.40;32.00;;;;;;5025303;28;19925;-68
2022/01/12 14:38:41;;;;;;;;;;;9.00;32.50;;;;;;5025014;28;20968;-69
2022/01/12 14:44:00;;;;;;;;;;;8.40;33.10;;;;;;5011007;28;20241;-68
2022/01/12 14:46:45;;;;;;;;;;;8.40;33.30;;;;;;5025131;28;20393;-68
2022/01/12 14:49:42;;;;;;;;;;;8.30;33.20;;;;;;5018444;28;19933;-68
2022/01/12 14:52:08;;;;;;;;;;;8.10;33.50;;;;;;5001027;28;20389;-68
2022/01/12 14:54:56;;;;;;;;;;;8.10;33.60;;;;;;5017305;28;19923;-68
2022/01/12 14:57:24;;;;;;;;;;;8.10;33.60;;;;;;4988488;28;20437;-68
2022/01/12 14:59:50;;;;;;;;;;;7.80;33.80;;;;;;4990947;28;19926;-68
2022/01/12 15:02:16;;;;;;;;;;;7.50;34.00;;;;;;4990737;28;19929;-68
2022/01/12 15:04:45;;;;;;;;;;;7.40;34.40;;;;;;4996710;28;19931;-68
2022/01/12 15:07:28;;;;;;;;;;;7.20;34.70;;;;;;5013513;28;19918;-68
2022/01/12 15:09:55;;;;;;;;;;;6.90;35.10;;;;;;5022107;28;19921;-68
2022/01/12 15:12:32;;;;;;;;;;;6.60;35.00;;;;;;5024387;28;19936;-68
2022/01/12 15:15:01;;;;;;;;;;;6.30;35.80;;;;;;5008605;28;19968;-70
2022/01/12 15:17:28;;;;;;;;;;;6.00;36.00;;;;;;4993101;28;19925;-68
2022/01/12 15:20:09;;;;;;;;;;;5.70;36.40;;;;;;4990200;28;19981;-68
2022/01/12 15:22:54;;;;;;;;;;;5.50;36.70;;;;;;5024535;28;19925;-67
2022/01/12 15:25:26;;;;;;;;;;;5.30;37.10;;;;;;4994242;28;19926;-67
2022/01/12 15:27:53;;;;;;;;;;;5.10;37.30;;;;;;4978218;28;19956;-67
2022/01/12 15:30:21;;;;;;;;;;;4.90;37.50;;;;;;5005416;28;19928;-69
2022/01/12 15:32:48;;;;;;;;;;;4.70;37.90;;;;;;5007284;28;19933;-68
2022/01/12 15:35:19;;;;;;;;;;;4.50;38.10;;;;;;5007598;28;19949;-70
2022/01/12 15:38:05;;;;;;;;;;;4.30;38.40;;;;;;5028592;28;19933;-68
2022/01/12 15:40:32;;;;;;;;;;;4.20;38.50;;;;;;5014338;28;20480;-68
2022/01/12 15:43:21;;;;;;;;;;;4.00;38.30;;;;;;5017509;28;19933;-68
2022/01/12 15:45:55;;;;;;;;;;;3.90;39.20;;;;;;5028273;28;20468;-68
2022/01/12 15:48:21;;;;;;;;;;;3.70;39.20;;;;;;5018084;28;19964;-70
2022/01/12 15:50:47;;;;;;;;;;;3.60;39.50;;;;;;5012031;28;20309;-67
2022/01/12 15:53:16;;;;;;;;;;;3.40;39.60;;;;;;5023590;28;19987;-68
2022/01/12 15:55:42;;;;;;;;;;;3.30;39.80;;;;;;5018834;28;19926;-68
2022/01/12 15:58:10;;;;;;;;;;;3.20;40.20;;;;;;5031910;28;19925;-68
2022/01/12 16:00:39;;;;;;;;;;;3.10;40.40;;;;;;5026715;28;19951;-68
2022/01/12 16:03:11;;;;;;;;;;;3.00;40.40;;;;;;5046863;28;19924;-70
2022/01/12 16:05:39;;;;;;;;;;;2.90;40.60;;;;;;5035755;28;19931;-70
2022/01/12 16:08:05;;;;;;;;;;;2.80;40.90;;;;;;5026991;28;19975;-70
2022/01/12 16:10:33;;;;;;;;;;;2.70;40.60;;;;;;5016323;28;20309;-69
2022/01/12 16:13:03;;;;;;;;;;;2.60;41.30;;;;;;5030067;28;19925;-70
2022/01/12 16:15:30;;;;;;;;;;;2.50;41.30;;;;;;5030837;28;20340;-70
2022/01/12 16:17:58;;;;;;;;;;;2.50;41.60;;;;;;5013404;28;19929;-69
2022/01/12 16:20:29;;;;;;;;;;;2.40;41.70;;;;;;5024378;28;19979;-69
2022/01/12 16:22:56;;;;;;;;;;;2.40;41.70;;;;;;5029391;28;20330;-69
2022/01/12 16:25:27;;;;;;;;;;;2.30;42.00;;;;;;5030569;28;20380;-70
2022/01/12 16:27:53;;;;;;;;;;;2.30;42.00;;;;;;4996404;28;20472;-69
2022/01/12 16:30:33;;;;;;;;;;;2.30;42.30;;;;;;5009770;28;19979;-70
2022/01/12 16:33:20;;;;;;;;;;;2.20;42.30;;;;;;5030249;28;19978;-69
2022/01/12 16:35:46;;;;;;;;;;;2.00;42.10;;;;;;5030889;28;20329;-70
2022/01/12 16:38:20;;;;;;;;;;;1.90;43.50;;;;;;5030302;28;19974;-70
2022/01/12 16:40:49;;;;;;;;;;;1.80;43.40;;;;;;5025880;28;19995;-70
2022/01/12 16:43:25;;;;;;;;;;;1.70;43.70;;;;;;5013407;28;19960;-70
2022/01/12 16:45:51;;;;;;;;;;;1.60;43.90;;;;;;4996393;28;20492;-69
2022/01/12 16:48:28;;;;;;;;;;;1.40;43.50;;;;;;5012100;28;19984;-69
2022/01/12 16:50:53;;;;;;;;;;;1.40;44.10;;;;;;5028518;28;19929;-69
2022/01/12 16:53:21;;;;;;;;;;;1.30;44.40;;;;;;5013115;28;19921;-70
2022/01/12 16:55:51;;;;;;;;;;;1.30;44.50;;;;;;5030620;28;19925;-69